Time;durP1;ratioP1;P1;durP2;ratioP2;P2;SDS_P1;SDS_P2;PMS_P1;PMS_P2;Temp;Humidity;BMP_temperature;BMP_pressure;BME280_temperature;BME280_humidity;BME280_pressure;Samples;Min_cycle;Max_cycle;Signal;HPM_P1;HPM_P2
2023/12/25 00:01:04;;;;;;;3.37;1.83;;;12.40;99.90;;;;;;5019354;28;20438;-68
2023/12/25 00:03:31;;;;;;;4.17;1.80;;;12.50;99.90;;;;;;5018208;28;20450;-68
2023/12/25 00:05:56;;;;;;;4.47;2.07;;;12.40;99.90;;;;;;5021744;28;20416;-69
2023/12/25 00:08:22;;;;;;;5.33;1.90;;;12.40;99.90;;;;;;5019422;28;20492;-68
2023/12/25 00:10:47;;;;;;;5.50;1.90;;;12.40;99.90;;;;;;5030644;28;20698;-68
2023/12/25 00:13:13;;;;;;;3.60;1.83;;;12.40;99.90;;;;;;5019935;28;20205;-69
2023/12/25 00:15:39;;;;;;;5.83;2.37;;;12.40;99.90;;;;;;5021443;28;20189;-69
2023/12/25 00:18:04;;;;;;;3.90;1.70;;;12.40;99.90;;;;;;5020123;28;20191;-69
2023/12/25 00:20:30;;;;;;;3.70;1.70;;;12.40;99.90;;;;;;5022779;28;20180;-69
2023/12/25 00:22:56;;;;;;;7.53;2.03;;;12.40;99.90;;;;;;5020772;28;20231;-69
2023/12/25 00:25:21;;;;;;;4.00;1.90;;;12.40;99.90;;;;;;5022873;28;20189;-69
2023/12/25 00:27:47;;;;;;;3.07;1.73;;;12.40;99.90;;;;;;5021026;28;20436;-69
2023/12/25 00:30:13;;;;;;;3.37;1.70;;;12.40;99.90;;;;;;5022295;28;20274;-69
2023/12/25 00:32:39;;;;;;;2.17;1.30;;;12.40;99.90;;;;;;5023533;28;20703;-69
2023/12/25 00:35:04;;;;;;;6.93;2.87;;;12.40;99.90;;;;;;5025092;28;20195;-69
2023/12/25 00:37:30;;;;;;;3.43;1.70;;;12.40;99.90;;;;;;5020496;28;20363;-69
2023/12/25 00:39:55;;;;;;;6.17;2.13;;;12.40;99.90;;;;;;5024928;28;20211;-69
2023/12/25 00:42:21;;;;;;;4.30;1.80;;;12.40;99.90;;;;;;5023473;28;20185;-69
2023/12/25 00:44:46;;;;;;;3.37;1.70;;;12.40;99.90;;;;;;5025615;28;20583;-69
2023/12/25 00:47:12;;;;;;;4.73;1.90;;;12.40;99.90;;;;;;5022196;28;20480;-69
2023/12/25 00:49:38;;;;;;;3.30;1.87;;;12.30;99.90;;;;;;5022922;28;20186;-69
2023/12/25 00:52:04;;;;;;;2.80;1.80;;;12.30;99.90;;;;;;5017633;28;20841;-69
2023/12/25 00:54:31;;;;;;;3.80;2.30;;;12.30;99.90;;;;;;5023707;28;20651;-68
2023/12/25 00:56:57;;;;;;;3.40;1.67;;;12.30;99.90;;;;;;5021530;28;20214;-68
2023/12/25 00:59:23;;;;;;;4.27;1.43;;;12.30;99.90;;;;;;5046989;28;20435;-68
2023/12/25 01:01:49;;;;;;;4.23;1.83;;;12.20;99.90;;;;;;5024747;28;20441;-69
2023/12/25 01:04:15;;;;;;;3.80;1.50;;;12.20;99.90;;;;;;5026643;28;20291;-68
2023/12/25 01:06:40;;;;;;;3.60;2.10;;;12.20;99.90;;;;;;5020988;28;20518;-68
2023/12/25 01:09:06;;;;;;;2.87;1.60;;;12.30;99.90;;;;;;5034323;28;20181;-68
2023/12/25 01:11:31;;;;;;;3.10;1.80;;;12.20;99.90;;;;;;5022654;28;20586;-68
2023/12/25 01:13:57;;;;;;;3.60;1.60;;;12.20;99.90;;;;;;5022101;28;20216;-68
2023/12/25 01:16:23;;;;;;;3.90;1.50;;;12.20;99.90;;;;;;5021097;28;20195;-68
2023/12/25 01:18:50;;;;;;;2.60;1.40;;;12.20;99.90;;;;;;5023364;28;20647;-68
2023/12/25 01:21:15;;;;;;;3.70;1.67;;;12.20;99.90;;;;;;5020170;28;20501;-68
2023/12/25 01:23:41;;;;;;;3.00;1.60;;;12.20;99.90;;;;;;5024822;28;20483;-68
2023/12/25 01:26:07;;;;;;;2.90;1.80;;;12.10;99.90;;;;;;5023417;28;20261;-68
2023/12/25 01:28:32;;;;;;;2.63;1.60;;;12.10;99.90;;;;;;5025061;28;20447;-68
2023/12/25 01:30:58;;;;;;;2.60;1.80;;;12.10;99.90;;;;;;5025835;28;20276;-68
2023/12/25 01:33:23;;;;;;;3.63;1.80;;;12.10;99.90;;;;;;5023866;28;20208;-68
2023/12/25 01:35:49;;;;;;;3.30;1.60;;;12.10;99.90;;;;;;5022827;28;20193;-68
2023/12/25 01:38:15;;;;;;;3.47;1.90;;;12.10;99.90;;;;;;5022264;28;20177;-68
2023/12/25 01:40:44;;;;;;;5.63;2.03;;;12.10;99.90;;;;;;5022486;28;20555;-68
2023/12/25 01:43:10;;;;;;;2.40;1.47;;;12.00;99.90;;;;;;5019365;28;20266;-68
2023/12/25 01:45:35;;;;;;;4.07;1.70;;;12.00;99.90;;;;;;5020157;28;20431;-67
2023/12/25 01:48:01;;;;;;;3.60;2.13;;;12.00;99.90;;;;;;5018556;28;20268;-67
2023/12/25 01:50:28;;;;;;;3.90;2.20;;;12.00;99.90;;;;;;5022869;28;20272;-67
2023/12/25 01:52:54;;;;;;;2.97;1.80;;;12.00;99.90;;;;;;5022257;28;20192;-67
2023/12/25 01:55:20;;;;;;;4.20;1.70;;;12.00;99.90;;;;;;5022677;28;20421;-69
2023/12/25 01:57:46;;;;;;;5.50;1.70;;;11.90;99.90;;;;;;5016056;28;20434;-69
2023/12/25 02:00:12;;;;;;;3.10;1.73;;;11.90;99.90;;;;;;5023264;28;20646;-69
2023/12/25 02:02:39;;;;;;;4.00;1.60;;;11.90;99.90;;;;;;5020682;28;20530;-69
2023/12/25 02:05:05;;;;;;;3.03;1.87;;;11.90;99.90;;;;;;5022930;28;20496;-69
2023/12/25 02:07:32;;;;;;;4.00;1.80;;;11.90;99.90;;;;;;5016109;28;20411;-69
2023/12/25 02:09:58;;;;;;;4.90;1.80;;;11.90;99.90;;;;;;5023674;28;20262;-69
2023/12/25 02:12:23;;;;;;;2.40;1.63;;;11.90;99.90;;;;;;5019374;28;20725;-69
2023/12/25 02:14:49;;;;;;;8.53;1.73;;;11.90;99.90;;;;;;5022582;28;20473;-70
2023/12/25 02:17:15;;;;;;;3.10;1.60;;;11.90;99.90;;;;;;5020394;28;20610;-69
2023/12/25 02:19:45;;;;;;;2.33;1.30;;;11.90;99.90;;;;;;5023084;28;20259;-69
2023/12/25 02:22:12;;;;;;;3.53;1.57;;;11.90;99.90;;;;;;5021576;28;20496;-69
2023/12/25 02:24:51;;;;;;;9.43;1.77;;;12.00;99.90;;;;;;5017676;28;20485;-70
2023/12/25 02:27:16;;;;;;;2.63;1.73;;;11.90;99.90;;;;;;5021834;28;20419;-69
2023/12/25 02:29:42;;;;;;;5.00;2.00;;;11.90;99.90;;;;;;5018012;28;20439;-67
2023/12/25 02:32:07;;;;;;;2.80;1.70;;;11.90;99.90;;;;;;5016934;28;20213;-68
2023/12/25 02:34:33;;;;;;;2.43;1.50;;;11.90;99.90;;;;;;5015340;28;20224;-68
2023/12/25 02:36:58;;;;;;;3.77;1.60;;;11.90;99.90;;;;;;5023120;28;20262;-68
2023/12/25 02:39:24;;;;;;;2.30;1.40;;;11.90;99.90;;;;;;5020929;28;20631;-68
2023/12/25 02:41:49;;;;;;;3.20;1.63;;;11.80;99.90;;;;;;5023327;28;20620;-68
2023/12/25 02:44:16;;;;;;;3.60;1.87;;;11.90;99.90;;;;;;5021034;28;20822;-68
2023/12/25 02:46:42;;;;;;;2.10;1.40;;;11.90;99.90;;;;;;5022552;28;20180;-68
2023/12/25 02:49:07;;;;;;;3.90;1.60;;;11.90;99.90;;;;;;5021442;28;20987;-68
2023/12/25 02:51:33;;;;;;;3.27;1.70;;;11.80;99.90;;;;;;5020220;28;20378;-68
2023/12/25 02:53:58;;;;;;;2.30;1.57;;;11.80;99.90;;;;;;5022775;28;20625;-68
2023/12/25 02:56:24;;;;;;;3.50;1.60;;;11.70;99.90;;;;;;5018241;28;20597;-68
2023/12/25 02:58:50;;;;;;;3.07;1.60;;;11.80;99.90;;;;;;5021692;28;20221;-68
2023/12/25 03:01:15;;;;;;;3.83;2.03;;;11.80;99.90;;;;;;5020437;28;20189;-68
2023/12/25 03:03:41;;;;;;;3.20;1.57;;;11.80;99.90;;;;;;5020622;28;21127;-68
2023/12/25 03:06:06;;;;;;;3.13;1.57;;;11.70;99.90;;;;;;5018086;28;20185;-68
2023/12/25 03:08:32;;;;;;;3.00;1.57;;;11.70;99.90;;;;;;5018882;28;20180;-68
2023/12/25 03:10:58;;;;;;;2.33;1.50;;;11.80;99.90;;;;;;5023783;28;20212;-68
2023/12/25 03:13:24;;;;;;;2.63;1.70;;;11.80;99.90;;;;;;5021057;28;20201;-68
2023/12/25 03:15:49;;;;;;;2.60;1.73;;;11.80;99.90;;;;;;5019478;28;20434;-68
2023/12/25 03:18:15;;;;;;;2.50;1.60;;;11.80;99.90;;;;;;5018541;28;20181;-68
2023/12/25 03:20:41;;;;;;;2.60;1.60;;;11.70;99.90;;;;;;5022645;28;20377;-68
2023/12/25 03:23:06;;;;;;;3.60;1.90;;;11.80;99.90;;;;;;5021966;28;20220;-68
2023/12/25 03:25:32;;;;;;;2.40;1.40;;;11.80;99.90;;;;;;5021584;28;20264;-68
2023/12/25 03:27:57;;;;;;;2.80;1.63;;;11.70;99.90;;;;;;5020473;28;20637;-68
2023/12/25 03:30:23;;;;;;;2.27;1.63;;;11.70;99.90;;;;;;5019514;28;20947;-68
2023/12/25 03:32:48;;;;;;;2.40;1.63;;;11.70;99.90;;;;;;5017969;28;20180;-68
2023/12/25 03:35:14;;;;;;;2.80;1.83;;;11.80;99.90;;;;;;5020798;28;20180;-67
2023/12/25 03:37:39;;;;;;;2.53;1.40;;;11.80;99.90;;;;;;5028560;28;20180;-68
2023/12/25 03:40:06;;;;;;;2.17;1.47;;;11.80;99.90;;;;;;5017328;28;20859;-67
2023/12/25 03:42:31;;;;;;;3.40;2.00;;;11.70;99.90;;;;;;5014208;28;20187;-68
2023/12/25 03:44:57;;;;;;;2.20;1.50;;;11.70;99.90;;;;;;5022099;28;20529;-68
2023/12/25 03:47:22;;;;;;;2.30;1.30;;;11.70;99.90;;;;;;5012448;28;20212;-68
2023/12/25 03:49:48;;;;;;;4.47;2.00;;;11.70;99.90;;;;;;5019242;28;20187;-68
2023/12/25 03:52:13;;;;;;;2.50;1.53;;;11.70;99.90;;;;;;5018028;28;20266;-68
2023/12/25 03:54:39;;;;;;;2.80;1.40;;;11.70;99.90;;;;;;5021072;28;20199;-68
2023/12/25 03:57:06;;;;;;;2.97;1.73;;;11.70;99.90;;;;;;5021285;28;20211;-69
2023/12/25 03:59:32;;;;;;;4.77;2.20;;;11.70;99.90;;;;;;5021766;28;20291;-69
2023/12/25 04:01:57;;;;;;;3.27;1.70;;;11.70;99.90;;;;;;5020016;28;20466;-68
2023/12/25 04:04:23;;;;;;;3.43;1.70;;;11.70;99.90;;;;;;5024896;28;20696;-68
2023/12/25 04:06:48;;;;;;;3.30;1.93;;;11.80;99.90;;;;;;5018840;28;20677;-68
2023/12/25 04:09:14;;;;;;;3.10;1.60;;;11.80;99.90;;;;;;5026369;28;20188;-68
2023/12/25 04:11:40;;;;;;;3.20;1.70;;;11.70;99.90;;;;;;5017587;28;20200;-69
2023/12/25 04:14:06;;;;;;;4.83;1.97;;;11.70;99.90;;;;;;5022486;28;20458;-67
2023/12/25 04:16:31;;;;;;;7.80;2.57;;;11.70;99.90;;;;;;5016568;28;20204;-68
2023/12/25 04:18:57;;;;;;;3.83;2.10;;;11.70;99.90;;;;;;5021459;28;20199;-68
2023/12/25 04:21:22;;;;;;;3.97;2.10;;;11.70;99.90;;;;;;5020348;28;20200;-69
2023/12/25 04:23:49;;;;;;;2.93;1.73;;;11.60;99.90;;;;;;5019058;28;20223;-68
2023/12/25 04:26:15;;;;;;;3.80;1.80;;;11.60;99.90;;;;;;5024545;28;20202;-68
2023/12/25 04:28:40;;;;;;;3.50;1.73;;;11.70;99.90;;;;;;5023948;28;20796;-68
2023/12/25 04:31:06;;;;;;;2.70;1.67;;;11.70;99.90;;;;;;5022902;28;20752;-67
2023/12/25 04:33:31;;;;;;;2.60;1.77;;;11.70;99.90;;;;;;5020496;28;20698;-68
2023/12/25 04:35:57;;;;;;;2.80;1.93;;;11.70;99.90;;;;;;5021563;28;20646;-67
2023/12/25 04:38:22;;;;;;;3.07;1.90;;;11.70;99.90;;;;;;5022803;28;20251;-68
2023/12/25 04:40:50;;;;;;;2.40;1.57;;;11.70;99.90;;;;;;5022989;28;20184;-67
2023/12/25 04:43:15;;;;;;;2.90;1.80;;;11.70;99.90;;;;;;5024655;28;20208;-67
2023/12/25 04:45:41;;;;;;;5.30;1.63;;;11.70;99.90;;;;;;5021018;28;20803;-68
2023/12/25 04:48:07;;;;;;;3.00;1.80;;;11.70;99.90;;;;;;5017222;28;20212;-68
2023/12/25 04:50:33;;;;;;;2.57;1.57;;;11.70;99.90;;;;;;5018544;28;20208;-68
2023/12/25 04:52:59;;;;;;;2.97;1.63;;;11.70;99.90;;;;;;5025388;28;20203;-68
2023/12/25 04:55:27;;;;;;;2.93;1.50;;;11.60;99.90;;;;;;5018470;28;20925;-68
2023/12/25 04:57:52;;;;;;;2.80;1.50;;;11.60;99.90;;;;;;5028452;28;20236;-68
2023/12/25 05:00:18;;;;;;;2.90;1.87;;;11.60;99.90;;;;;;5021595;28;20439;-68
2023/12/25 05:02:44;;;;;;;2.20;1.47;;;11.60;99.90;;;;;;5047265;28;20192;-68
2023/12/25 05:05:09;;;;;;;2.10;1.33;;;11.60;99.90;;;;;;5034817;28;20188;-69
2023/12/25 05:07:35;;;;;;;2.73;1.53;;;11.60;99.90;;;;;;5016695;28;20276;-68
2023/12/25 05:10:00;;;;;;;2.60;1.60;;;11.60;99.90;;;;;;5021095;28;20610;-68
2023/12/25 05:12:26;;;;;;;3.17;1.60;;;11.50;99.90;;;;;;5022170;28;20303;-68
2023/12/25 05:14:51;;;;;;;2.30;1.37;;;11.50;99.90;;;;;;5015834;28;22167;-68
2023/12/25 05:17:17;;;;;;;2.77;1.60;;;11.50;99.90;;;;;;5021911;28;20226;-68
2023/12/25 05:19:43;;;;;;;3.47;1.70;;;11.50;99.90;;;;;;5020155;28;20260;-68
2023/12/25 05:22:08;;;;;;;2.17;1.30;;;11.50;99.90;;;;;;5019963;28;20180;-68
2023/12/25 05:24:34;;;;;;;2.90;1.40;;;11.50;99.90;;;;;;5017901;28;20550;-68
2023/12/25 05:26:59;;;;;;;2.70;1.60;;;11.60;99.90;;;;;;5023907;28;20189;-68
2023/12/25 05:29:25;;;;;;;2.63;1.87;;;11.70;99.90;;;;;;5019323;28;20235;-68
2023/12/25 05:31:50;;;;;;;2.77;1.50;;;11.70;99.90;;;;;;5022683;28;20211;-68
2023/12/25 05:34:16;;;;;;;2.80;1.60;;;11.60;99.90;;;;;;5020630;28;20196;-68
2023/12/25 05:36:42;;;;;;;6.23;1.80;;;11.50;99.90;;;;;;5019751;28;20182;-68
2023/12/25 05:39:08;;;;;;;3.00;1.53;;;11.50;99.90;;;;;;5021066;28;20189;-68
2023/12/25 05:41:34;;;;;;;4.80;1.73;;;11.50;99.90;;;;;;5017953;28;20207;-68
2023/12/25 05:44:00;;;;;;;2.60;1.70;;;11.50;99.90;;;;;;5021330;28;20450;-68
2023/12/25 05:46:25;;;;;;;2.60;1.53;;;11.40;99.90;;;;;;5018735;28;20431;-68
2023/12/25 05:48:51;;;;;;;2.20;1.50;;;11.40;99.90;;;;;;5018262;28;20502;-67
2023/12/25 05:51:16;;;;;;;2.83;1.63;;;11.40;99.90;;;;;;5013040;28;20209;-68
2023/12/25 05:53:42;;;;;;;2.23;1.40;;;11.30;99.90;;;;;;5019880;28;20276;-68
2023/12/25 05:56:07;;;;;;;4.13;1.80;;;11.30;99.90;;;;;;5021523;28;20267;-68
2023/12/25 05:58:33;;;;;;;2.53;1.60;;;11.20;99.90;;;;;;5019009;28;20215;-68
2023/12/25 06:00:59;;;;;;;4.60;3.30;;;11.20;99.90;;;;;;5022213;28;20188;-68
2023/12/25 06:03:25;;;;;;;3.03;1.53;;;11.30;99.90;;;;;;5017441;28;20620;-68
2023/12/25 06:05:50;;;;;;;2.77;1.70;;;11.30;99.90;;;;;;5018414;28;20672;-68
2023/12/25 06:08:16;;;;;;;3.13;1.70;;;11.20;99.90;;;;;;5023312;28;20188;-68
2023/12/25 06:10:42;;;;;;;2.73;1.70;;;11.20;99.90;;;;;;5023233;28;20674;-68
2023/12/25 06:13:08;;;;;;;2.40;1.60;;;11.20;99.90;;;;;;5017093;28;20800;-68
2023/12/25 06:15:33;;;;;;;3.27;1.77;;;11.20;99.90;;;;;;5022300;28;20510;-68
2023/12/25 06:17:59;;;;;;;2.90;2.20;;;11.20;99.90;;;;;;5021464;28;20180;-68
2023/12/25 06:20:25;;;;;;;3.77;1.70;;;11.20;99.90;;;;;;5024033;28;20584;-68
2023/12/25 06:22:51;;;;;;;4.23;1.93;;;11.10;99.90;;;;;;5019885;28;20209;-68
2023/12/25 06:25:16;;;;;;;4.50;1.70;;;11.20;99.90;;;;;;5024726;28;20438;-68
2023/12/25 06:27:42;;;;;;;2.40;1.63;;;11.20;99.90;;;;;;5019257;28;20573;-68
2023/12/25 06:30:08;;;;;;;3.40;1.90;;;11.20;99.90;;;;;;5021727;28;20622;-68
2023/12/25 06:32:33;;;;;;;3.90;1.90;;;11.20;99.90;;;;;;5019972;28;20801;-68
2023/12/25 06:34:59;;;;;;;2.83;1.70;;;11.20;99.90;;;;;;5016109;28;20200;-68
2023/12/25 06:37:24;;;;;;;3.20;1.90;;;11.20;99.90;;;;;;5020872;28;20685;-68
2023/12/25 06:39:50;;;;;;;3.00;1.53;;;11.30;99.90;;;;;;5019651;28;20237;-68
2023/12/25 06:42:15;;;;;;;3.23;1.90;;;11.20;99.90;;;;;;5017766;28;20679;-68
2023/12/25 06:44:41;;;;;;;2.27;1.30;;;11.10;99.90;;;;;;5017101;28;20201;-68
2023/12/25 06:47:07;;;;;;;2.67;1.87;;;11.10;99.90;;;;;;5013471;28;20224;-68
2023/12/25 06:49:32;;;;;;;4.03;1.90;;;11.10;99.90;;;;;;5017965;28;20208;-68
2023/12/25 06:51:59;;;;;;;2.60;1.70;;;11.10;99.90;;;;;;5020537;28;20208;-68
2023/12/25 06:54:24;;;;;;;5.33;2.37;;;11.10;99.90;;;;;;5021509;28;20200;-68
2023/12/25 06:56:50;;;;;;;3.40;1.70;;;11.00;99.90;;;;;;5016056;28;20440;-68
2023/12/25 06:59:15;;;;;;;3.67;1.80;;;11.10;99.90;;;;;;5051754;28;20419;-68
2023/12/25 07:01:41;;;;;;;3.90;2.10;;;11.10;99.90;;;;;;5016543;28;20272;-68
2023/12/25 07:04:09;;;;;;;5.50;2.07;;;11.00;99.90;;;;;;5014719;28;20310;-68
2023/12/25 07:06:35;;;;;;;2.33;1.43;;;11.00;99.90;;;;;;5018933;28;20191;-67
2023/12/25 07:09:00;;;;;;;3.47;1.80;;;11.00;99.90;;;;;;5020639;28;20874;-68
2023/12/25 07:11:27;;;;;;;2.57;1.60;;;11.10;99.90;;;;;;5019419;28;20251;-68
2023/12/25 07:13:55;;;;;;;2.73;1.63;;;11.00;99.90;;;;;;5018761;28;20200;-68
2023/12/25 07:16:22;;;;;;;3.70;1.60;;;11.00;99.90;;;;;;5016675;28;20485;-68
2023/12/25 07:18:52;;;;;;;3.00;1.80;;;11.00;99.90;;;;;;5020009;28;21003;-68
2023/12/25 07:21:17;;;;;;;2.63;1.73;;;11.10;99.90;;;;;;5044046;28;20478;-68
2023/12/25 07:23:43;;;;;;;3.30;1.67;;;11.10;99.90;;;;;;5021918;28;20689;-68
2023/12/25 07:26:08;;;;;;;3.60;1.70;;;11.10;99.90;;;;;;5022367;28;20200;-68
2023/12/25 07:28:34;;;;;;;4.17;1.70;;;11.10;99.90;;;;;;5021246;28;20184;-68
2023/12/25 07:31:03;;;;;;;2.80;1.70;;;11.10;99.90;;;;;;5021251;28;20193;-68
2023/12/25 07:33:28;;;;;;;2.60;1.60;;;11.00;99.90;;;;;;5021988;28;20303;-68
2023/12/25 07:35:54;;;;;;;2.67;1.60;;;11.10;99.90;;;;;;5018512;28;20504;-68
2023/12/25 07:38:23;;;;;;;4.40;1.90;;;11.10;99.90;;;;;;5022271;28;20188;-69
2023/12/25 07:40:49;;;;;;;3.40;1.87;;;11.00;99.90;;;;;;5026560;28;20192;-69
2023/12/25 07:43:15;;;;;;;2.93;1.60;;;11.10;99.90;;;;;;5027543;28;20521;-69
2023/12/25 07:45:40;;;;;;;4.43;2.20;;;11.10;99.90;;;;;;5023185;28;20853;-69
2023/12/25 07:48:06;;;;;;;3.47;1.67;;;11.10;99.90;;;;;;5026891;28;20690;-69
2023/12/25 07:50:32;;;;;;;2.20;1.50;;;11.10;99.90;;;;;;5022989;28;20555;-69
2023/12/25 07:52:58;;;;;;;2.20;1.50;;;11.10;99.90;;;;;;5027748;28;20234;-69
2023/12/25 07:55:24;;;;;;;2.80;1.50;;;11.10;99.90;;;;;;5024828;28;20438;-69
2023/12/25 07:57:49;;;;;;;2.57;1.87;;;11.10;99.90;;;;;;5026394;28;20176;-69
2023/12/25 08:00:15;;;;;;;2.53;1.77;;;11.10;99.90;;;;;;5023406;28;20884;-69
2023/12/25 08:02:41;;;;;;;2.20;1.50;;;11.20;99.90;;;;;;5027826;28;20184;-69
2023/12/25 08:05:06;;;;;;;2.40;1.50;;;11.10;99.90;;;;;;5027808;28;20215;-69
2023/12/25 08:07:32;;;;;;;2.50;1.50;;;11.10;99.90;;;;;;5025894;28;20187;-69
2023/12/25 08:09:58;;;;;;;2.50;1.70;;;11.10;99.90;;;;;;5024620;28;20184;-69
2023/12/25 08:12:23;;;;;;;3.27;1.70;;;11.10;99.90;;;;;;5029418;28;20212;-69
2023/12/25 08:14:49;;;;;;;2.53;1.50;;;11.10;99.90;;;;;;5049140;28;20320;-69
2023/12/25 08:17:16;;;;;;;2.73;1.80;;;11.00;99.90;;;;;;5028432;28;20692;-69
2023/12/25 08:19:42;;;;;;;2.60;1.50;;;10.90;99.90;;;;;;5025966;28;20211;-70
2023/12/25 08:22:07;;;;;;;3.70;1.60;;;11.00;99.90;;;;;;5029064;28;20514;-70
2023/12/25 08:24:35;;;;;;;2.53;1.43;;;11.00;99.90;;;;;;5017609;28;20227;-68
2023/12/25 08:27:00;;;;;;;6.50;1.87;;;10.90;99.90;;;;;;5027062;28;20189;-68
2023/12/25 08:29:26;;;;;;;2.93;1.50;;;10.90;99.90;;;;;;5023769;28;20778;-69
2023/12/25 08:31:52;;;;;;;2.40;1.60;;;10.90;99.90;;;;;;5026806;28;20200;-69
2023/12/25 08:34:17;;;;;;;2.93;1.57;;;11.00;99.90;;;;;;5026674;28;20253;-70
2023/12/25 08:36:43;;;;;;;3.93;1.67;;;10.90;99.90;;;;;;5026717;28;20701;-69
2023/12/25 08:39:08;;;;;;;3.63;1.63;;;10.90;99.90;;;;;;5027356;28;20176;-69
2023/12/25 08:41:34;;;;;;;2.80;1.70;;;10.90;99.90;;;;;;5024671;28;20188;-68
2023/12/25 08:44:00;;;;;;;2.70;1.53;;;10.90;99.90;;;;;;5025959;28;20377;-69
2023/12/25 08:46:26;;;;;;;2.80;1.50;;;10.90;99.90;;;;;;5027171;28;20585;-69
2023/12/25 08:48:52;;;;;;;2.00;1.43;;;10.90;99.90;;;;;;5025030;28;20859;-69
2023/12/25 08:51:18;;;;;;;2.80;1.70;;;11.00;99.90;;;;;;5021389;28;20512;-69
2023/12/25 08:53:44;;;;;;;6.27;1.80;;;11.00;99.90;;;;;;5023102;28;20193;-69
2023/12/25 08:56:10;;;;;;;2.90;1.60;;;11.00;99.90;;;;;;5020177;28;20829;-69
2023/12/25 08:58:36;;;;;;;2.40;1.47;;;11.00;99.90;;;;;;5021562;28;20419;-69
2023/12/25 09:01:02;;;;;;;2.20;1.43;;;11.00;99.90;;;;;;5024243;28;20676;-69
2023/12/25 09:03:27;;;;;;;2.70;1.70;;;11.00;99.90;;;;;;5023370;28;20235;-71
2023/12/25 09:05:54;;;;;;;5.73;1.80;;;11.10;99.90;;;;;;5021944;28;20200;-69
2023/12/25 09:08:22;;;;;;;3.20;1.50;;;11.00;99.90;;;;;;5052839;28;20227;-69
2023/12/25 09:10:47;;;;;;;2.50;1.60;;;11.00;99.90;;;;;;5021895;28;20833;-69
2023/12/25 09:13:13;;;;;;;2.90;1.87;;;11.00;99.90;;;;;;5024520;28;20439;-69
2023/12/25 09:15:38;;;;;;;2.27;1.53;;;11.00;99.90;;;;;;5022818;28;20180;-68
2023/12/25 09:18:04;;;;;;;2.20;1.57;;;11.10;99.90;;;;;;5021267;28;20653;-69
2023/12/25 09:20:30;;;;;;;2.33;1.50;;;11.10;99.90;;;;;;5025703;28;20184;-69
2023/12/25 09:22:55;;;;;;;2.60;1.50;;;11.00;99.90;;;;;;5018938;28;20648;-69
2023/12/25 09:25:21;;;;;;;2.80;1.53;;;10.90;99.90;;;;;;5019435;28;20187;-68
2023/12/25 09:27:46;;;;;;;2.10;1.30;;;10.80;99.90;;;;;;5019588;28;20195;-68
2023/12/25 09:30:12;;;;;;;2.80;1.70;;;10.80;99.90;;;;;;5022675;28;20268;-68
2023/12/25 09:32:39;;;;;;;2.10;1.30;;;10.70;99.90;;;;;;5020286;28;20208;-68
2023/12/25 09:35:08;;;;;;;2.90;1.60;;;10.70;99.90;;;;;;5018617;28;20435;-69
2023/12/25 09:37:33;;;;;;;3.43;1.43;;;10.60;99.90;;;;;;5019544;28;20497;-68
2023/12/25 09:39:59;;;;;;;2.80;1.53;;;10.60;99.90;;;;;;5023591;28;20427;-68
2023/12/25 09:42:25;;;;;;;2.20;1.50;;;10.60;99.90;;;;;;5018141;28;20205;-68
2023/12/25 09:44:54;;;;;;;2.60;1.70;;;10.50;99.90;;;;;;5021497;28;20204;-69
2023/12/25 09:47:20;;;;;;;2.10;1.43;;;10.40;99.90;;;;;;5021228;28;20192;-68
2023/12/25 09:49:47;;;;;;;2.87;1.47;;;10.50;99.90;;;;;;5021803;28;20451;-68
2023/12/25 09:52:13;;;;;;;2.67;1.30;;;10.40;99.90;;;;;;5021222;28;20470;-69
2023/12/25 09:54:40;;;;;;;2.77;1.77;;;10.30;99.90;;;;;;5024403;28;20443;-68
2023/12/25 09:57:06;;;;;;;2.20;1.40;;;10.30;99.90;;;;;;5020100;28;20952;-68
2023/12/25 09:59:32;;;;;;;3.00;1.50;;;10.30;99.90;;;;;;5025563;28;20415;-68
2023/12/25 10:02:05;;;;;;;3.57;1.50;;;10.30;99.90;;;;;;5018854;28;20513;-68
2023/12/25 10:04:32;;;;;;;2.23;1.40;;;10.10;99.90;;;;;;5023248;28;20454;-68
2023/12/25 10:06:58;;;;;;;2.50;1.50;;;10.00;99.90;;;;;;5019760;28;20957;-68
2023/12/25 10:09:24;;;;;;;2.40;1.40;;;10.00;99.90;;;;;;5022473;28;20522;-68
2023/12/25 10:11:50;;;;;;;2.53;1.53;;;10.00;99.90;;;;;;5020307;28;20570;-68
2023/12/25 10:14:15;;;;;;;3.60;1.30;;;9.90;99.90;;;;;;5019050;28;20838;-68
2023/12/25 10:16:41;;;;;;;2.53;1.40;;;9.90;99.90;;;;;;5020483;28;20404;-68
2023/12/25 10:19:06;;;;;;;4.00;1.97;;;10.00;99.90;;;;;;5018080;28;20734;-68
2023/12/25 10:21:45;;;;;;;8.47;1.93;;;10.00;99.90;;;;;;5021703;28;20180;-68
2023/12/25 10:24:16;;;;;;;2.40;1.60;;;9.90;99.90;;;;;;5022381;28;20303;-68
2023/12/25 10:26:45;;;;;;;2.23;1.40;;;10.00;99.90;;;;;;5021447;28;20430;-69
2023/12/25 10:29:12;;;;;;;2.67;1.60;;;9.90;99.90;;;;;;5020229;28;20530;-69
2023/12/25 10:31:38;;;;;;;2.73;1.60;;;9.90;99.90;;;;;;5021507;28;20849;-68
2023/12/25 10:34:04;;;;;;;2.40;1.33;;;9.90;99.90;;;;;;5020192;28;20822;-68
2023/12/25 10:36:30;;;;;;;3.10;1.27;;;9.90;99.90;;;;;;5020874;28;20514;-68
2023/12/25 10:38:56;;;;;;;2.33;1.47;;;9.90;99.90;;;;;;5017656;28;20208;-69
2023/12/25 10:41:27;;;;;;;4.97;1.87;;;9.90;99.90;;;;;;5017701;28;20419;-69
2023/12/25 10:43:57;;;;;;;2.50;1.40;;;10.00;99.90;;;;;;5017608;28;20215;-69
2023/12/25 10:46:29;;;;;;;2.30;1.40;;;10.10;99.90;;;;;;5013815;28;20431;-69
2023/12/25 10:48:55;;;;;;;2.50;1.40;;;10.10;99.90;;;;;;5014379;28;20434;-68
2023/12/25 10:51:46;;;;;;;6.60;1.80;;;10.00;99.90;;;;;;5020894;28;20451;-68
2023/12/25 10:54:12;;;;;;;3.37;1.60;;;10.10;99.90;;;;;;5017725;28;20612;-68
2023/12/25 10:56:45;;;;;;;3.87;1.70;;;10.00;99.90;;;;;;5014676;28;20447;-68
2023/12/25 10:59:32;;;;;;;2.83;1.70;;;9.90;99.90;;;;;;5019583;28;20411;-69
2023/12/25 11:02:02;;;;;;;3.57;1.80;;;9.90;99.90;;;;;;5019118;28;20453;-68
2023/12/25 11:04:29;;;;;;;2.40;1.50;;;9.80;99.90;;;;;;5018598;28;20484;-68
2023/12/25 11:06:57;;;;;;;2.37;1.60;;;9.80;99.90;;;;;;5019563;28;20439;-69
2023/12/25 11:09:22;;;;;;;2.30;1.60;;;9.90;99.90;;;;;;5012067;28;20435;-68
2023/12/25 11:11:48;;;;;;;2.67;1.70;;;9.90;99.90;;;;;;5019912;28;20464;-69
2023/12/25 11:14:15;;;;;;;5.07;1.90;;;10.00;99.90;;;;;;5016984;28;20223;-69
2023/12/25 11:16:40;;;;;;;2.83;1.63;;;9.90;99.90;;;;;;5022920;28;20427;-68
2023/12/25 11:19:06;;;;;;;2.20;1.50;;;9.90;99.90;;;;;;5018764;28;20913;-69
2023/12/25 11:21:33;;;;;;;2.60;1.70;;;9.90;99.90;;;;;;5022136;28;20405;-69
2023/12/25 11:24:02;;;;;;;2.73;1.60;;;10.00;99.90;;;;;;5021416;28;20455;-69
2023/12/25 11:26:29;;;;;;;3.37;1.50;;;10.00;99.90;;;;;;5023498;28;20476;-69
2023/12/25 11:29:06;;;;;;;2.60;1.60;;;10.10;99.90;;;;;;5020747;28;20481;-69
2023/12/25 11:31:41;;;;;;;3.10;1.30;;;10.20;99.90;;;;;;5020321;28;20463;-69
2023/12/25 11:34:17;;;;;;;2.30;1.30;;;10.10;99.90;;;;;;5017349;28;20651;-69
2023/12/25 11:36:44;;;;;;;3.30;1.50;;;10.20;99.90;;;;;;5021267;28;20816;-69
2023/12/25 11:39:10;;;;;;;2.30;1.43;;;10.10;99.90;;;;;;5017997;28;20841;-69
2023/12/25 11:41:37;;;;;;;2.30;1.50;;;10.10;99.90;;;;;;5020741;28;20447;-69
2023/12/25 11:44:06;;;;;;;2.70;1.63;;;10.10;99.90;;;;;;5017921;28;20620;-68
2023/12/25 11:46:35;;;;;;;2.33;1.37;;;10.20;99.90;;;;;;5017808;28;20418;-68
2023/12/25 11:49:00;;;;;;;3.17;1.60;;;10.20;99.90;;;;;;5018740;28;20549;-69
2023/12/25 11:51:29;;;;;;;2.20;1.57;;;10.20;99.90;;;;;;5017909;28;21016;-69
2023/12/25 11:53:59;;;;;;;3.70;1.50;;;10.20;99.90;;;;;;5018800;28;20200;-69
2023/12/25 11:56:27;;;;;;;2.50;1.67;;;10.20;99.90;;;;;;5020684;28;20444;-69
2023/12/25 11:58:53;;;;;;;2.80;1.60;;;10.30;99.90;;;;;;5020197;28;20419;-69
2023/12/25 12:01:19;;;;;;;2.63;1.50;;;10.20;99.90;;;;;;5017722;28;20422;-69
2023/12/25 12:03:47;;;;;;;2.70;1.60;;;10.20;99.90;;;;;;5016374;28;20867;-69
2023/12/25 12:06:14;;;;;;;3.07;1.50;;;10.30;99.90;;;;;;5019560;28;20544;-69
2023/12/25 12:08:40;;;;;;;2.60;1.70;;;10.30;99.90;;;;;;5014928;28;21106;-69
2023/12/25 12:11:06;;;;;;;2.40;1.60;;;10.40;99.90;;;;;;5035008;28;20797;-69
2023/12/25 12:13:32;;;;;;;2.63;1.70;;;10.40;99.90;;;;;;5023271;28;20454;-69
2023/12/25 12:15:58;;;;;;;2.60;1.40;;;10.40;99.90;;;;;;5021969;28;20258;-69
2023/12/25 12:18:25;;;;;;;2.63;1.60;;;10.40;99.90;;;;;;5019221;28;20438;-69
2023/12/25 12:20:51;;;;;;;2.43;1.40;;;10.40;99.90;;;;;;5021710;28;20786;-69
2023/12/25 12:23:16;;;;;;;2.57;1.40;;;10.50;99.90;;;;;;5020935;28;20520;-69
2023/12/25 12:25:42;;;;;;;2.47;1.20;;;10.50;99.90;;;;;;5024092;28;20447;-69
2023/12/25 12:28:08;;;;;;;2.40;1.53;;;10.60;99.90;;;;;;5023315;28;20272;-69
2023/12/25 12:30:36;;;;;;;4.07;1.57;;;10.60;99.90;;;;;;5025168;28;20435;-69
2023/12/25 12:33:03;;;;;;;2.20;1.33;;;10.60;99.90;;;;;;5026106;28;20536;-69
2023/12/25 12:35:29;;;;;;;2.17;1.43;;;10.70;99.90;;;;;;5024354;28;20442;-69
2023/12/25 12:37:54;;;;;;;3.23;1.50;;;10.70;99.90;;;;;;5024746;28;21199;-69
2023/12/25 12:40:20;;;;;;;2.10;1.30;;;10.70;99.90;;;;;;5019220;28;20231;-69
2023/12/25 12:42:46;;;;;;;3.40;1.90;;;10.80;99.90;;;;;;5021005;28;20229;-69